Hundvaag 1 weather for Jun 2009
Month no. 264
Obs.
Da.
Temp. Dew Point Precip. Wind
Speed
Wind gusts Cloud cover Press. Humidity Wind dir. Sunny OPT
01.06.2009 20,3 10,9 0,0 5,6 5,6 10 1030,7 55,0 292,5 1 97,5 %
02.06.2009 11,2 7,1 0,0 16,7 16,9 10 1025,3 76,0 337,5 1 80,0 %
03.06.2009 11,4 5,1 0,0 7,4 8,2 10 1020,2 65,0 337,5 1 85,0 %
04.06.2009 10,5 3,9 0,0 16,7 16,7 10 1014,4 64,0 0,0 1 80,0 %
05.06.2009 10,3 6,3 0,0 1,9 2,3 4 1011,1 76,0 157,5 1 75,0 %
06.06.2009 12,8 7,7 0,0 0,0 0,0 8 1012,4 71,0 180,0 1 87,5 %
07.06.2009 16,4 8,1 0,0 1,9 2,9 10 1011,1 58,0 0,0 1 95,0 %
08.06.2009 16,9 10,1 0,0 5,6 5,6 9 1013,1 64,0 135,0 1 90,0 %
09.06.2009 12,4 7,5 4,5 3,2 3,2 4 1015,5 72,0 135,0 1 72,5 %
10.06.2009 10,8 8,6 9,2 5,6 5,6 2 1012,4 86,0 22,5 1 60,0 %
11.06.2009 9,2 4,6 0,0 9,3 9,3 8 1014,1 73,0 337,5 1 77,5 %
12.06.2009 11,3 7,8 0,0 8,1 8,4 6 1014,9 79,0 292,5 1 75,0 %
13.06.2009 14,3 7,8 0,0 11,1 11,1 2 1020,2 65,0 0,0 1 65,0 %
14.06.2009 13,3 8,9 0,0 9,3 9,3 3 1019,2 75,0 315,0 1 70,0 %
15.06.2009 10,0 5,9 0,0 14,8 14,8 9 1016,8 76,0 315,0 1 77,5 %
16.06.2009 12,8 7,1 0,0 11,1 11,1 8 1018,8 68,0 0,0 1 80,0 %
17.06.2009 21,1 11,2 0,0 5,6 5,6 9 1024,3 53,0 180,0 1 95,0 %
18.06.2009 11,7 9,3 21,2 11,1 11,9 4 1007,0 85,0 270,0 1 50,0 %
19.06.2009 12,9 9,9 2,6 6,9 11,1 6 1007,1 82,0 157,5 1 80,0 %
20.06.2009 13,4 8,7 0,0 5,6 6,4 7 1011,4 73,0 270,0 1 82,5 %
21.06.2009 11,8 8,1 0,0 7,4 7,4 8 1021,9 78,0 292,5 1 80,0 %
22.06.2009 16,5 10,1 0,0 2,3 2,3 6 1027,8 66,0 315,0 1 85,0 %
23.06.2009 14,0 10,2 0,0 0,0 0,0 0 1031,8 78,0 45,0 1 67,5 %
24.06.2009 21,4 12,8 0,0 7,6 7,6 10 1032,1 58,0 270,0 1 95,0 %
25.06.2009 22,0 14,4 0,0 3,7 3,7 10 1028,0 62,0 45,0 1 97,5 %
26.06.2009 20,0 11,7 0,0 4,8 6,4 4 1026,6 59,0 0,0 1 82,5 %
27.06.2009 21,2 12,1 0,0 5,6 5,6 10 1027,7 56,0 67,5 1 97,5 %
28.06.2009 21,6 14,5 0,0 3,7 3,7 8 1024,6 64,0 90,0 1 92,5 %
29.06.2009 20,8 13,5 0,0 1,9 2,1 8 1021,9 63,0 67,5 1 95,0 %
30.06.2009 18,0 14,5 0,0 1,9 1,9 1 1023,9 80,0 22,5 1 75,0 %
                       
Avrg/Sum 15,0 9,3 37,5 6,5 6,9 6,8 1019,5 69,3 165,0 30 81,4 %